Time;durP1;ratioP1;P1;durP2;ratioP2;P2;SDS_P1;SDS_P2;PMS_P1;PMS_P2;Temp;Humidity;BMP_temperature;BMP_pressure;BME280_temperature;BME280_humidity;BME280_pressure;Samples;Min_cycle;Max_cycle;Signal;HPM_P1;HPM_P2
2023/01/27 00:02:18;;;;;;;8.97;4.93;;;2.80;99.90;;;2.52;70.66;94128.09;4988005;28;20458;-54
2023/01/27 00:04:45;;;;;;;4.27;3.97;;;2.80;99.90;;;2.50;70.53;94125.59;4989262;28;20461;-58
2023/01/27 00:07:12;;;;;;;5.57;4.03;;;2.90;99.90;;;2.55;70.58;94132.25;4975763;28;20459;-56
2023/01/27 00:09:41;;;;;;;5.03;4.53;;;2.90;99.90;;;2.54;69.61;94131.44;4982516;28;20462;-56
2023/01/27 00:15:02;;;;;;;4.60;4.20;;;2.90;99.90;;;2.57;70.59;94120.81;4976729;28;20890;-58
2023/01/27 00:17:31;;;;;;;7.17;3.90;;;2.90;99.90;;;2.58;70.31;94127.66;4977052;28;20485;-57
2023/01/27 00:19:58;;;;;;;4.10;3.77;;;2.90;99.90;;;2.58;70.20;94124.25;4981424;28;20987;-56
2023/01/27 00:25:11;;;;;;;4.30;3.90;;;2.90;99.90;;;2.57;69.66;94101.81;4981970;28;20467;-55
2023/01/27 00:27:38;;;;;;;7.90;3.57;;;2.90;99.90;;;2.57;70.52;94096.63;4984193;28;20516;-56
2023/01/27 00:30:07;;;;;;;4.00;3.70;;;2.90;99.90;;;2.55;69.76;94095.91;4986846;28;20979;-58
2023/01/27 00:35:20;;;;;;;5.03;3.77;;;2.90;99.90;;;2.49;69.63;94098.00;4979826;28;20565;-56
2023/01/27 00:37:47;;;;;;;4.30;3.80;;;2.80;99.90;;;2.47;69.63;94093.84;4981175;28;20451;-57
2023/01/27 00:40:16;;;;;;;5.67;3.53;;;2.80;99.90;;;2.44;69.77;94102.69;4979852;28;20604;-55
2023/01/27 00:42:43;;;;;;;4.53;4.13;;;2.80;99.90;;;2.43;70.94;94108.84;4979777;28;20525;-59
2023/01/27 00:47:57;;;;;;;4.00;3.70;;;2.80;99.90;;;2.47;70.89;94092.06;4979945;28;21027;-58
2023/01/27 00:50:24;;;;;;;6.83;3.63;;;2.80;99.90;;;2.50;70.42;94096.22;4978106;28;20487;-56
2023/01/27 00:52:52;;;;;;;4.77;4.27;;;2.80;99.90;;;2.51;70.37;94106.50;4981067;28;20466;-56
2023/01/27 00:55:19;;;;;;;4.17;3.77;;;2.80;99.90;;;2.54;70.43;94107.22;4981763;28;21121;-55
2023/01/27 00:57:47;;;;;;;7.63;4.53;;;2.80;99.90;;;2.56;70.10;94102.75;4975137;28;20886;-54
2023/01/27 01:00:16;;;;;;;4.67;4.27;;;2.90;99.90;;;2.59;70.67;94102.53;4979397;28;20756;-59
2023/01/27 01:02:43;;;;;;;5.50;4.10;;;2.90;99.90;;;2.60;70.11;94102.44;4978338;28;21042;-56
2023/01/27 01:05:11;;;;;;;3.70;3.10;;;2.90;99.90;;;2.61;69.89;94095.47;4980584;28;20478;-56
2023/01/27 01:07:39;;;;;;;2.97;2.77;;;2.90;99.90;;;2.60;70.25;94098.97;4984110;28;21211;-59
2023/01/27 01:10:07;;;;;;;2.83;2.60;;;2.90;99.90;;;2.57;70.17;94094.00;4979615;28;20563;-57
2023/01/27 01:12:35;;;;;;;2.10;2.00;;;2.90;99.90;;;2.53;70.36;94093.41;4983642;28;20463;-58
2023/01/27 01:15:02;;;;;;;3.20;2.80;;;2.90;99.90;;;2.51;70.34;94097.91;4973453;28;20496;-57
2023/01/27 01:17:29;;;;;;;2.90;2.70;;;2.80;99.90;;;2.49;70.86;94102.34;4976738;28;20894;-58
2023/01/27 01:19:56;;;;;;;3.20;2.77;;;2.80;99.90;;;2.49;70.57;94105.78;4972758;28;20471;-58
2023/01/27 01:22:25;;;;;;;3.70;2.57;;;2.80;99.90;;;2.50;70.90;94109.22;4974275;28;20557;-55
2023/01/27 01:24:52;;;;;;;2.83;2.63;;;2.80;99.90;;;2.51;70.30;94109.09;4982242;28;20466;-57
2023/01/27 01:27:20;;;;;;;5.67;3.40;;;2.80;99.90;;;2.52;70.05;94112.50;4985992;28;20480;-58
2023/01/27 01:29:47;;;;;;;2.30;2.20;;;2.80;99.90;;;2.51;70.88;94101.31;4976396;28;20464;-58
2023/01/27 01:32:14;;;;;;;3.07;2.60;;;2.80;99.90;;;2.51;70.81;94103.91;4987036;28;20561;-58
2023/01/27 01:34:41;;;;;;;3.00;2.70;;;2.80;99.90;;;2.51;71.01;94103.91;4981087;28;20497;-60
2023/01/27 01:37:09;;;;;;;2.50;2.30;;;2.90;99.90;;;2.53;70.11;94098.59;4982354;28;20525;-58
2023/01/27 01:39:37;;;;;;;4.50;2.90;;;2.90;99.90;;;2.55;70.87;94111.47;4985312;28;20458;-56
2023/01/27 01:42:05;;;;;;;3.07;2.77;;;2.90;99.90;;;2.57;70.27;94115.63;4982960;28;20490;-56
2023/01/27 01:44:32;;;;;;;2.97;2.77;;;2.90;99.90;;;2.57;70.90;94110.44;4981078;28;20456;-56
2023/01/27 01:46:59;;;;;;;3.63;3.33;;;2.90;99.90;;;2.61;70.06;94116.22;4985472;28;20475;-57
2023/01/27 01:49:29;;;;;;;2.67;2.33;;;2.90;99.90;;;2.62;69.96;94112.69;4994041;28;20533;-55
2023/01/27 01:51:58;;;;;;;3.77;3.47;;;3.00;99.90;;;2.64;70.62;94116.81;4986681;28;20474;-55
2023/01/27 01:54:27;;;;;;;3.20;2.90;;;3.00;99.90;;;2.65;70.30;94115.03;4988014;28;21039;-59
2023/01/27 01:56:58;;;;;;;3.13;2.80;;;3.00;99.90;;;2.66;70.27;94106.34;4984563;28;20575;-56
2023/01/27 01:59:28;;;;;;;3.63;2.80;;;3.00;99.90;;;2.67;69.86;94106.22;4986618;28;20450;-57
2023/01/27 02:01:57;;;;;;;3.23;2.67;;;3.00;99.90;;;2.67;70.67;94095.84;4979517;28;21060;-58
2023/01/27 02:04:26;;;;;;;3.20;2.93;;;3.00;99.90;;;2.69;69.90;94093.13;4984971;28;20458;-59
2023/01/27 02:06:58;;;;;;;2.83;2.60;;;3.00;99.90;;;2.70;70.20;94094.78;4980782;28;21081;-58
2023/01/27 02:09:25;;;;;;;3.53;3.23;;;3.00;99.90;;;2.71;70.21;94083.44;4993471;28;20468;-58
2023/01/27 02:11:52;;;;;;;3.00;2.80;;;3.00;99.90;;;2.69;69.71;94072.34;4979746;28;20479;-57
2023/01/27 02:14:21;;;;;;;4.37;3.07;;;3.00;99.90;;;2.69;70.28;94072.34;4986893;28;20564;-57
2023/01/27 02:16:48;;;;;;;3.00;2.80;;;3.00;99.90;;;2.66;69.98;94063.00;4979684;28;20471;-57
2023/01/27 02:19:21;;;;;;;3.60;3.30;;;3.00;99.90;;;2.66;70.03;94057.00;4986263;28;20967;-57
2023/01/27 02:21:48;;;;;;;3.63;3.43;;;3.00;99.90;;;2.65;70.22;94056.19;4977640;28;20476;-59
2023/01/27 02:24:15;;;;;;;4.03;3.67;;;3.00;99.90;;;2.65;70.15;94050.16;4984230;28;20835;-59
2023/01/27 02:26:44;;;;;;;3.90;3.50;;;3.00;99.90;;;2.64;70.53;94043.31;4977621;28;20515;-58
2023/01/27 02:29:13;;;;;;;4.00;2.80;;;2.90;99.90;;;2.64;70.08;94033.75;4992804;28;20451;-60
2023/01/27 02:31:40;;;;;;;3.13;2.93;;;3.00;99.90;;;2.64;70.77;94036.34;4994377;28;21031;-57
2023/01/27 02:34:10;;;;;;;3.33;3.03;;;3.00;99.90;;;2.65;70.09;94034.56;4985343;28;20482;-57
2023/01/27 02:36:40;;;;;;;4.90;3.03;;;3.00;99.90;;;2.64;70.38;94038.94;4981356;28;20506;-58
2023/01/27 02:39:07;;;;;;;2.37;2.13;;;3.00;99.90;;;2.64;70.76;94043.31;4976599;28;20453;-57
2023/01/27 02:41:36;;;;;;;2.27;2.07;;;3.00;99.90;;;2.65;69.63;94047.56;4988181;28;20482;-56
2023/01/27 02:44:05;;;;;;;3.50;2.60;;;3.00;99.90;;;2.65;69.91;94047.56;4984952;28;20458;-57
2023/01/27 02:46:32;;;;;;;3.33;3.03;;;3.00;99.90;;;2.66;69.94;94042.25;4982815;28;20482;-56
2023/01/27 02:49:00;;;;;;;4.13;3.37;;;3.00;99.90;;;2.67;70.80;94043.91;4975227;28;20581;-58
2023/01/27 02:51:27;;;;;;;3.37;3.07;;;3.00;99.90;;;2.66;69.82;94044.03;4979688;28;20482;-58
2023/01/27 02:53:54;;;;;;;2.67;2.47;;;3.00;99.90;;;2.64;69.70;94048.50;4979487;28;20486;-55
2023/01/27 02:56:22;;;;;;;3.07;2.77;;;3.00;99.90;;;2.58;69.40;94049.78;4983470;28;21020;-59
2023/01/27 02:58:49;;;;;;;3.17;2.97;;;2.90;99.90;;;2.46;69.31;94046.31;4977431;28;20521;-56
2023/01/27 03:01:18;;;;;;;3.60;3.30;;;2.80;99.90;;;2.37;69.77;94046.13;4984685;28;20482;-58
2023/01/27 03:03:46;;;;;;;3.17;2.97;;;2.70;99.90;;;2.26;70.33;94045.16;4977138;28;20463;-56
2023/01/27 03:06:13;;;;;;;4.93;3.23;;;2.70;99.90;;;2.19;70.10;94043.13;4980489;28;20533;-58
2023/01/27 03:08:40;;;;;;;3.00;2.60;;;2.60;99.90;;;2.11;69.94;94035.88;4991174;28;20829;-58
2023/01/27 03:11:08;;;;;;;4.03;2.57;;;2.50;99.90;;;2.09;71.64;94038.59;4985932;28;20519;-58
2023/01/27 03:13:35;;;;;;;4.37;3.50;;;2.50;99.90;;;2.09;70.50;94033.41;4987735;28;20458;-57
2023/01/27 03:18:50;;;;;;;7.83;4.00;;;2.50;99.90;;;2.14;71.09;94026.09;4985122;28;20571;-56
2023/01/27 03:21:18;;;;;;;7.40;4.50;;;2.50;99.90;;;2.19;70.86;94022.38;4980734;28;20474;-60
2023/01/27 03:23:47;;;;;;;11.03;4.50;;;2.50;99.90;;;2.22;70.87;94016.97;4981241;28;20959;-57
2023/01/27 03:26:15;;;;;;;12.40;4.87;;;2.50;99.90;;;2.22;71.43;94009.19;4983755;28;20509;-58
2023/01/27 03:28:42;;;;;;;7.67;4.60;;;2.60;99.90;;;2.25;71.58;94008.97;4979859;28;20462;-58
2023/01/27 03:31:18;;;;;;;7.00;4.40;;;2.60;99.90;;;2.27;70.44;94007.88;4978487;28;20510;-55
2023/01/27 03:33:46;;;;;;;6.40;4.37;;;2.60;99.90;;;2.31;70.95;94014.50;4980076;28;20450;-58
2023/01/27 03:47:13;;;;;;;4.33;3.93;;;2.80;99.90;;;2.53;70.94;93991.38;4982431;28;20540;-57
2023/01/27 03:49:41;;;;;;;5.80;3.93;;;2.80;99.90;;;2.56;70.89;93988.56;4979447;28;20454;-58
2023/01/27 03:52:09;;;;;;;4.93;3.80;;;2.90;99.90;;;2.59;70.39;93983.13;4975175;28;20475;-58
2023/01/27 03:54:37;;;;;;;11.10;4.00;;;2.90;99.90;;;2.60;70.42;93979.56;4978773;28;20498;-55
2023/01/27 03:57:04;;;;;;;4.03;3.73;;;2.90;99.90;;;2.64;70.17;93981.00;4983852;28;20489;-57
2023/01/27 03:59:32;;;;;;;5.20;4.70;;;3.00;99.90;;;2.65;70.84;93978.31;4982130;28;21009;-56
2023/01/27 04:07:31;;;;;;;6.70;3.63;;;3.00;99.90;;;2.71;70.46;93987.38;4987930;28;20518;-59
2023/01/27 04:09:58;;;;;;;5.13;4.63;;;3.00;99.90;;;2.72;69.93;93996.84;4978059;28;20461;-58
2023/01/27 04:12:25;;;;;;;13.63;5.27;;;3.00;99.90;;;2.73;70.18;93995.91;4978683;28;20487;-57
2023/01/27 04:14:52;;;;;;;13.17;6.03;;;3.00;99.90;;;2.73;70.51;94011.47;4979215;28;20500;-58
2023/01/27 04:17:19;;;;;;;10.90;6.43;;;3.10;99.90;;;2.75;70.66;94025.16;4979722;28;20538;-56
2023/01/27 04:19:47;;;;;;;12.67;6.90;;;3.00;99.90;;;2.75;70.82;94035.56;4977454;28;20455;-58
2023/01/27 04:22:15;;;;;;;20.87;7.57;;;3.10;99.90;;;2.73;70.70;94047.84;4983749;28;20838;-55
2023/01/27 04:24:44;;;;;;;13.30;5.40;;;3.10;99.90;;;2.73;70.33;94047.00;4983960;28;20480;-57
2023/01/27 04:27:12;;;;;;;11.77;6.10;;;3.00;99.90;;;2.72;71.06;94040.97;4979774;28;20544;-58
2023/01/27 04:29:41;;;;;;;15.60;5.13;;;3.10;99.90;;;2.72;70.90;94051.38;4987487;28;20521;-56
2023/01/27 04:32:09;;;;;;;10.27;5.47;;;3.10;99.90;;;2.71;69.83;94056.66;4981770;28;20615;-57
2023/01/27 04:34:36;;;;;;;15.67;5.73;;;3.00;99.90;;;2.72;70.30;94059.16;4979689;28;20530;-58
2023/01/27 04:37:05;;;;;;;9.00;4.50;;;3.00;99.90;;;2.72;70.83;94074.72;4979255;28;20481;-55
2023/01/27 04:39:32;;;;;;;5.47;4.90;;;3.00;99.90;;;2.71;70.46;94070.47;4980017;28;20463;-58
2023/01/27 04:42:01;;;;;;;17.53;5.30;;;3.00;99.90;;;2.72;70.02;94071.31;4976687;28;20513;-56
2023/01/27 04:44:28;;;;;;;38.90;19.20;;;3.00;99.90;;;2.72;70.48;94066.94;4980611;28;20535;-58
2023/01/27 04:46:56;;;;;;;20.43;10.30;;;3.00;99.90;;;2.74;70.25;94069.44;4976521;28;20479;-57
2023/01/27 04:49:25;;;;;;;27.10;21.60;;;3.00;99.90;;;2.76;70.93;94083.13;4974184;28;20450;-56
2023/01/27 04:51:52;;;;;;;11.97;7.83;;;3.10;99.90;;;2.79;70.60;94082.88;4981181;28;21032;-59
2023/01/27 04:54:20;;;;;;;6.40;5.13;;;3.10;99.90;;;2.83;69.97;94069.56;4970881;28;20915;-56
2023/01/27 04:56:56;;;;;;;10.23;6.03;;;3.10;99.90;;;2.86;70.71;94061.56;4984902;28;21014;-56
2023/01/27 04:59:25;;;;;;;4.50;4.00;;;3.20;99.90;;;2.88;70.50;94087.41;4981826;28;20451;-59
2023/01/27 05:01:52;;;;;;;8.23;3.83;;;3.20;99.90;;;2.88;70.64;94100.41;4977838;28;20479;-58
2023/01/27 05:04:19;;;;;;;14.87;3.87;;;3.20;99.90;;;2.89;70.33;94077.88;4980848;28;20446;-56
2023/01/27 05:06:46;;;;;;;4.43;4.03;;;3.20;99.90;;;2.92;70.05;94077.63;4983882;28;21094;-56
2023/01/27 05:09:14;;;;;;;3.87;3.53;;;3.20;99.90;;;2.93;70.34;94074.94;4981600;28;20454;-57
2023/01/27 05:11:41;;;;;;;6.27;4.17;;;3.20;99.90;;;2.90;70.40;94064.78;4970418;28;21288;-58
2023/01/27 05:14:08;;;;;;;6.40;4.80;;;3.20;99.90;;;2.96;70.19;94071.25;4974841;28;20467;-58
2023/01/27 05:16:38;;;;;;;5.93;4.93;;;3.30;99.90;;;2.98;70.06;94079.78;4979317;28;20572;-55
2023/01/27 05:19:06;;;;;;;7.47;4.70;;;3.30;99.90;;;2.98;70.46;94077.19;4981859;28;21111;-58
2023/01/27 05:21:33;;;;;;;9.77;5.93;;;3.30;99.90;;;3.00;70.37;94070.91;4979923;28;20512;-58
2023/01/27 05:24:01;;;;;;;8.90;7.27;;;3.30;99.90;;;3.00;70.55;94075.28;4986542;28;20450;-57
2023/01/27 05:26:28;;;;;;;10.20;6.00;;;3.30;99.90;;;3.01;70.01;94082.16;4981539;28;21080;-56
2023/01/27 05:28:57;;;;;;;9.00;6.23;;;3.30;99.90;;;3.02;70.32;94063.00;4986183;28;20497;-58
2023/01/27 05:31:25;;;;;;;11.23;6.00;;;3.30;99.90;;;3.03;69.76;94064.69;4973772;28;20486;-56
2023/01/27 05:33:55;;;;;;;13.10;8.43;;;3.30;99.90;;;3.02;70.18;94070.81;4979198;28;20887;-59
2023/01/27 05:36:23;;;;;;;11.00;7.63;;;3.30;99.90;;;2.99;69.77;94058.91;4976356;28;21015;-57
2023/01/27 05:38:51;;;;;;;7.60;6.00;;;3.30;99.90;;;2.94;69.62;94055.78;4980463;28;20455;-56
2023/01/27 05:41:19;;;;;;;5.90;5.40;;;3.30;99.90;;;2.89;70.12;94055.31;4982190;28;20495;-59
2023/01/27 05:43:47;;;;;;;5.30;4.37;;;3.20;99.90;;;2.82;69.26;94043.72;4979397;28;20528;-55
2023/01/27 05:46:16;;;;;;;3.50;3.20;;;3.20;99.90;;;2.76;69.17;94042.41;4982063;28;20479;-56
2023/01/27 05:48:44;;;;;;;3.67;3.37;;;3.10;99.90;;;2.68;69.26;94045.56;4979866;28;20474;-61
2023/01/27 05:51:13;;;;;;;7.73;5.10;;;3.00;99.90;;;2.66;70.54;94046.63;4977327;28;21030;-56
2023/01/27 05:53:40;;;;;;;5.27;4.77;;;3.00;99.90;;;2.67;70.19;94037.91;4977653;28;20455;-58
2023/01/27 05:56:09;;;;;;;9.20;4.10;;;3.00;99.90;;;2.66;70.43;94046.63;4981618;28;21046;-59
2023/01/27 05:58:37;;;;;;;5.80;4.13;;;3.00;99.90;;;2.66;69.50;94033.63;4991555;28;20504;-61
2023/01/27 06:01:08;;;;;;;3.50;3.20;;;3.00;99.90;;;2.67;70.31;94053.47;4993621;28;20523;-59
2023/01/27 06:03:35;;;;;;;3.67;3.33;;;3.00;99.90;;;2.66;70.31;94060.41;4979210;28;20467;-59
2023/01/27 06:06:03;;;;;;;3.17;2.97;;;3.00;99.90;;;2.66;69.91;94068.22;4987588;28;21021;-56
2023/01/27 06:08:32;;;;;;;3.40;3.20;;;3.00;99.90;;;2.67;69.98;94069.06;4992460;28;20517;-56
2023/01/27 06:10:59;;;;;;;3.67;3.37;;;3.00;99.90;;;2.67;69.56;94061.25;4983955;28;20489;-56
2023/01/27 06:13:26;;;;;;;6.23;4.30;;;3.00;99.90;;;2.66;69.26;94052.63;4985857;28;20478;-56
2023/01/27 06:15:54;;;;;;;4.43;4.13;;;3.00;99.90;;;2.67;69.71;94056.88;4985522;28;20995;-55
2023/01/27 06:18:22;;;;;;;21.43;13.87;;;3.00;99.90;;;2.67;70.27;94064.69;4981719;28;20489;-56
2023/01/27 06:20:49;;;;;;;26.03;17.23;;;3.00;99.90;;;2.68;69.70;94066.34;4979910;28;20466;-55
2023/01/27 06:23:17;;;;;;;9.00;6.47;;;3.00;99.90;;;2.68;69.97;94057.72;4981662;28;20467;-58
2023/01/27 06:25:47;;;;;;;7.53;5.20;;;3.00;99.90;;;2.69;69.48;94067.97;4992326;28;20580;-56
2023/01/27 06:28:15;;;;;;;6.30;5.00;;;3.00;99.90;;;2.72;69.52;94063.53;4989863;28;21310;-56
2023/01/27 06:30:43;;;;;;;4.20;3.80;;;3.00;99.90;;;2.75;69.81;94077.09;4978735;28;20509;-55
2023/01/27 06:33:10;;;;;;;5.90;4.80;;;3.00;99.90;;;2.77;69.60;94070.03;4984392;28;20454;-58
2023/01/27 06:35:39;;;;;;;4.70;4.30;;;3.10;99.90;;;2.79;69.83;94073.34;4974811;28;20493;-59
2023/01/27 06:38:08;;;;;;;7.67;5.00;;;3.10;99.90;;;2.82;69.54;94078.31;4986759;28;20479;-57
2023/01/27 06:40:35;;;;;;;4.93;4.13;;;3.10;99.90;;;2.85;68.99;94072.06;4991333;28;20486;-56
2023/01/27 06:43:04;;;;;;;17.17;3.20;;;3.10;99.90;;;2.89;68.95;94070.06;4983429;28;20443;-59
2023/01/27 06:45:31;;;;;;;4.60;3.17;;;3.20;99.90;;;2.91;69.81;94071.59;4987273;28;20478;-58
2023/01/27 06:47:59;;;;;;;4.20;3.83;;;3.20;99.90;;;2.94;68.72;94078.34;4982976;28;20819;-59
2023/01/27 06:50:27;;;;;;;3.67;3.37;;;3.20;99.90;;;2.98;68.91;94077.19;4974723;28;20475;-56
2023/01/27 06:52:59;;;;;;;3.57;3.27;;;3.30;99.90;;;3.00;68.65;94075.28;4983544;28;20454;-56
2023/01/27 06:55:26;;;;;;;5.23;4.03;;;3.30;99.90;;;3.03;70.69;94075.06;4990579;28;20636;-56
2023/01/27 06:57:53;;;;;;;5.03;4.03;;;3.30;99.90;;;3.11;71.34;94080.50;4987128;28;20455;-59
2023/01/27 07:00:22;;;;;;;23.33;19.03;;;3.40;99.90;;;3.23;71.20;94086.56;4986125;28;20482;-58
2023/01/27 07:02:52;;;;;;;9.20;8.27;;;3.50;99.90;;;3.33;71.95;94084.09;4984735;28;20844;-56
2023/01/27 07:05:19;;;;;;;12.70;6.80;;;3.60;99.90;;;3.46;71.85;94084.03;4981924;28;21007;-59
2023/01/27 07:07:47;;;;;;;5.30;4.80;;;3.70;99.90;;;3.58;70.70;94080.50;4992592;28;20871;-56
2023/01/27 07:10:14;;;;;;;6.23;4.23;;;3.80;99.90;;;3.66;69.65;94088.53;4986306;28;20475;-60
2023/01/27 07:12:41;;;;;;;7.43;3.50;;;3.90;99.90;;;3.71;69.05;94093.38;4988197;28;20453;-58
2023/01/27 07:15:10;;;;;;;4.33;3.93;;;4.00;99.90;;;3.71;68.92;94088.19;4986206;28;20529;-59
2023/01/27 07:17:39;;;;;;;5.90;3.90;;;4.00;99.90;;;3.70;68.69;94089.97;4978758;28;21018;-58
2023/01/27 07:20:09;;;;;;;15.83;7.43;;;4.00;99.90;;;3.71;68.36;94094.19;4984661;28;20519;-58
2023/01/27 07:22:37;;;;;;;6.90;4.97;;;4.00;99.90;;;3.69;68.51;94085.69;4985646;28;21370;-58
2023/01/27 07:25:06;;;;;;;4.17;3.73;;;4.00;99.90;;;3.72;68.57;94087.25;4977501;28;20990;-54
2023/01/27 07:27:33;;;;;;;3.53;3.33;;;4.00;99.90;;;3.72;68.07;94084.63;4977837;28;21050;-59
2023/01/27 07:30:00;;;;;;;3.20;3.00;;;4.00;99.90;;;3.72;67.80;94088.06;4986040;28;20450;-56
2023/01/27 07:32:28;;;;;;;3.07;2.83;;;4.10;99.90;;;3.73;67.68;94084.53;4978222;28;20470;-57
2023/01/27 07:34:56;;;;;;;3.47;3.13;;;4.00;99.90;;;3.75;67.88;94081.81;4973795;28;20457;-55
2023/01/27 07:37:24;;;;;;;3.00;2.70;;;4.10;99.90;;;3.76;67.61;94084.28;4981991;28;20494;-60
2023/01/27 07:39:51;;;;;;;2.90;2.67;;;4.00;99.90;;;3.78;67.62;94089.38;4982801;28;20519;-59
2023/01/27 07:42:18;;;;;;;3.80;2.87;;;4.10;99.90;;;3.80;67.24;94087.47;4984646;28;20450;-56
2023/01/27 07:44:46;;;;;;;3.07;2.40;;;4.10;99.90;;;3.81;67.38;94083.94;4981091;28;20470;-56
2023/01/27 07:47:13;;;;;;;3.00;2.70;;;4.10;99.90;;;3.81;67.24;94089.13;4982398;28;20505;-58
2023/01/27 07:49:40;;;;;;;4.77;3.00;;;4.10;99.90;;;3.85;67.09;94087.13;4983943;28;20462;-59
2023/01/27 07:52:09;;;;;;;4.70;2.77;;;4.10;99.90;;;3.87;66.94;94082.59;4986527;28;20482;-56
2023/01/27 07:54:36;;;;;;;2.60;2.00;;;4.10;99.90;;;3.89;66.60;94089.34;4984101;28;20876;-58
2023/01/27 07:57:04;;;;;;;4.10;2.07;;;4.20;99.90;;;3.90;66.89;94091.03;4982858;28;20909;-57
2023/01/27 07:59:31;;;;;;;1.90;1.80;;;4.20;99.90;;;3.91;66.12;94084.03;4982312;28;20836;-55
2023/01/27 08:01:58;;;;;;;2.40;2.20;;;4.20;99.90;;;3.92;66.12;94098.72;4980833;28;21011;-59
2023/01/27 08:04:26;;;;;;;2.00;1.90;;;4.20;99.90;;;3.92;66.18;94099.53;4989503;28;20510;-59
2023/01/27 08:06:53;;;;;;;2.10;2.00;;;4.20;99.90;;;3.90;65.65;94093.63;4993073;28;20497;-57
2023/01/27 08:09:22;;;;;;;2.93;1.80;;;4.20;99.90;;;3.89;65.70;94089.34;4985719;28;20462;-56
2023/01/27 08:11:49;;;;;;;3.10;2.10;;;4.20;99.90;;;3.89;66.10;94088.53;4980151;28;21020;-58
2023/01/27 08:14:16;;;;;;;1.70;1.60;;;4.20;99.90;;;3.90;65.74;94082.38;4980602;28;20951;-57
2023/01/27 08:16:44;;;;;;;3.87;1.70;;;4.20;99.90;;;3.91;65.63;94079.66;4979504;28;20499;-59
2023/01/27 08:19:11;;;;;;;2.10;2.00;;;4.20;99.90;;;3.95;66.01;94083.69;4981191;28;20530;-59
2023/01/27 08:21:38;;;;;;;1.80;1.70;;;4.20;99.90;;;4.00;65.33;94082.47;4986970;28;20510;-56
2023/01/27 08:24:06;;;;;;;2.70;2.50;;;4.30;99.90;;;4.03;64.94;94082.25;4986591;28;20449;-56
2023/01/27 08:26:35;;;;;;;3.00;2.70;;;4.30;99.90;;;4.01;64.74;94086.75;4980635;28;20578;-56
2023/01/27 08:29:02;;;;;;;4.47;3.87;;;4.30;99.90;;;3.99;64.88;94089.47;4979333;28;20453;-57
2023/01/27 08:31:30;;;;;;;2.87;2.67;;;4.30;99.90;;;3.98;65.37;94093.00;4984876;28;20481;-59
2023/01/27 08:33:57;;;;;;;2.00;1.80;;;4.30;99.90;;;3.95;64.72;94099.28;4987151;28;20455;-56
2023/01/27 08:36:25;;;;;;;4.80;2.33;;;4.20;99.90;;;3.93;64.98;94095.16;4979844;28;20494;-58
2023/01/27 08:38:52;;;;;;;8.43;3.40;;;4.20;99.90;;;3.90;65.12;94106.63;4981680;28;20454;-58
2023/01/27 08:41:21;;;;;;;3.77;3.27;;;4.20;99.90;;;3.85;64.49;94098.34;4978866;28;20903;-57
2023/01/27 08:43:50;;;;;;;9.93;4.07;;;4.10;99.90;;;3.77;65.09;94104.13;4982796;28;20462;-58
2023/01/27 08:46:17;;;;;;;5.03;4.50;;;4.10;99.90;;;3.73;65.29;94105.31;4972655;28;20479;-57
2023/01/27 08:48:45;;;;;;;3.33;3.03;;;4.00;99.90;;;3.72;65.54;94108.03;4996544;28;20546;-59
2023/01/27 08:51:14;;;;;;;2.87;2.67;;;4.00;99.90;;;3.68;65.31;94109.22;4996647;28;20485;-58
2023/01/27 08:53:41;;;;;;;2.40;2.30;;;4.00;99.90;;;3.65;65.33;94106.84;4985769;28;20462;-57
2023/01/27 08:56:11;;;;;;;2.50;2.37;;;4.00;99.90;;;3.63;65.28;94106.97;4983494;28;20489;-57
2023/01/27 08:58:38;;;;;;;2.70;2.50;;;3.90;99.90;;;3.63;65.55;94108.75;4985347;28;20505;-59
2023/01/27 09:01:08;;;;;;;3.10;2.90;;;3.90;99.90;;;3.64;65.69;94105.19;4983723;28;20495;-54
2023/01/27 09:03:35;;;;;;;3.30;3.10;;;3.90;99.90;;;3.66;65.88;94104.13;4989378;28;21024;-58
2023/01/27 09:06:03;;;;;;;4.20;2.77;;;4.00;99.90;;;3.69;65.04;94105.69;4985931;28;20724;-56
2023/01/27 09:08:31;;;;;;;4.80;2.73;;;4.00;99.90;;;3.69;65.18;94108.28;4991414;28;20501;-59
2023/01/27 09:10:58;;;;;;;2.97;2.50;;;4.00;99.90;;;3.72;65.74;94100.25;4986646;28;20485;-59
2023/01/27 09:13:27;;;;;;;3.03;2.73;;;4.00;99.90;;;3.74;65.41;94091.34;4985055;28;20459;-55
2023/01/27 09:15:54;;;;;;;3.10;2.90;;;4.00;99.90;;;3.76;65.71;94099.03;4987307;28;20478;-58
2023/01/27 09:18:23;;;;;;;3.83;3.37;;;4.10;99.90;;;3.79;65.48;94098.00;4981672;28;20534;-58
2023/01/27 09:20:50;;;;;;;2.60;2.40;;;4.00;99.90;;;3.80;65.09;94091.84;4979199;28;20593;-56
2023/01/27 09:23:17;;;;;;;2.83;2.63;;;4.10;99.90;;;3.82;65.19;94093.38;4985490;28;20513;-59
2023/01/27 09:25:45;;;;;;;3.30;3.00;;;4.10;99.90;;;3.84;64.54;94106.25;4986409;28;20535;-55
2023/01/27 09:28:15;;;;;;;2.73;2.53;;;4.10;99.90;;;3.85;64.97;94098.34;4988113;28;20967;-58
2023/01/27 09:30:44;;;;;;;2.33;2.20;;;4.10;99.90;;;3.88;65.17;94099.88;4985271;28;21053;-58
2023/01/27 09:33:12;;;;;;;2.70;2.50;;;4.10;99.90;;;3.91;64.97;94099.66;4978780;28;20538;-56
2023/01/27 09:35:42;;;;;;;2.60;2.17;;;4.20;99.90;;;3.92;64.96;94088.31;4985062;28;20472;-57
2023/01/27 09:38:10;;;;;;;2.10;2.00;;;4.20;99.90;;;3.94;64.11;94082.00;4986391;28;20488;-57
2023/01/27 09:40:46;;;;;;;2.20;2.00;;;4.20;99.90;;;3.93;64.44;94071.72;4980371;28;20479;-58
2023/01/27 09:43:39;;;;;;;4.40;2.97;;;4.20;99.90;;;3.90;64.25;94062.41;4987754;28;20465;-59
2023/01/27 09:46:44;;;;;;;3.90;3.57;;;4.20;99.90;;;3.85;64.69;94069.72;4985426;28;20469;-58
2023/01/27 09:49:46;;;;;;;3.77;3.40;;;4.20;99.90;;;3.84;64.22;94070.69;4981839;28;20462;-59
2023/01/27 09:52:32;;;;;;;3.57;3.27;;;4.10;99.90;;;3.86;64.94;94068.78;4981932;28;20450;-56
2023/01/27 09:55:03;;;;;;;2.77;2.57;;;4.20;99.90;;;3.88;64.80;94061.69;4986657;28;20839;-58
2023/01/27 09:57:40;;;;;;;2.90;2.70;;;4.20;99.90;;;3.89;64.93;94055.53;4993148;28;20921;-57
2023/01/27 10:00:25;;;;;;;4.07;2.53;;;4.20;99.90;;;3.89;64.66;94059.94;4981863;28;20565;-57
2023/01/27 10:03:32;;;;;;;2.83;2.50;;;4.20;99.90;;;3.89;64.92;94045.13;4990394;28;20469;-56
2023/01/27 10:06:26;;;;;;;3.70;3.40;;;4.20;99.90;;;3.91;64.95;94045.84;4981352;28;20525;-57
2023/01/27 10:09:20;;;;;;;3.43;3.13;;;4.20;99.90;;;3.90;64.44;94044.19;4979920;28;20448;-56
2023/01/27 10:11:53;;;;;;;3.40;3.20;;;4.20;99.90;;;3.90;64.45;94036.41;4977329;28;20473;-58
2023/01/27 10:14:28;;;;;;;7.13;2.50;;;4.20;99.90;;;3.92;64.71;94037.09;4976592;28;20953;-58
2023/01/27 10:17:10;;;;;;;2.63;2.43;;;4.20;99.90;;;3.97;64.49;94035.88;4984875;28;20505;-57
2023/01/27 10:19:49;;;;;;;2.87;2.63;;;4.20;99.90;;;3.99;64.20;94041.81;4985162;28;20447;-57
2023/01/27 10:22:22;;;;;;;3.77;3.27;;;4.30;99.90;;;4.00;65.12;94033.03;4991928;28;20450;-57
2023/01/27 10:25:02;;;;;;;4.87;3.90;;;4.30;99.90;;;3.99;64.38;94032.22;4989822;28;21065;-59
2023/01/27 10:27:33;;;;;;;4.20;3.90;;;4.30;99.90;;;3.95;64.38;94036.84;4991716;28;20828;-59
2023/01/27 10:30:03;;;;;;;3.50;2.70;;;4.20;99.90;;;3.90;64.19;94031.19;4982673;28;20502;-59
2023/01/27 10:32:34;;;;;;;5.23;3.93;;;4.20;99.90;;;3.89;64.62;94034.72;4984062;28;20443;-59
2023/01/27 10:35:09;;;;;;;3.30;3.10;;;4.20;99.90;;;3.87;64.38;94039.25;4977250;28;20458;-56
2023/01/27 10:37:43;;;;;;;4.43;3.10;;;4.20;99.90;;;3.84;64.40;94030.81;4992444;28;21035;-56
2023/01/27 10:40:19;;;;;;;7.73;3.00;;;4.10;99.90;;;3.83;64.82;94031.78;4983247;28;20482;-59
2023/01/27 10:42:51;;;;;;;3.03;2.60;;;4.10;99.90;;;3.81;64.24;94018.91;4983095;28;20454;-56
2023/01/27 10:45:28;;;;;;;3.77;3.40;;;4.10;99.90;;;3.79;64.58;94025.97;4982992;28;20471;-58
2023/01/27 10:48:28;;;;;;;3.57;3.27;;;4.10;99.90;;;3.81;64.23;94036.28;4978690;28;20447;-57
2023/01/27 10:50:58;;;;;;;4.13;3.70;;;4.10;99.90;;;3.82;64.75;94032.72;4980620;28;20879;-58
2023/01/27 10:53:29;;;;;;;5.60;4.77;;;4.10;99.90;;;3.80;64.66;94019.84;4991676;28;20450;-59
2023/01/27 10:56:01;;;;;;;3.37;3.07;;;4.10;99.90;;;3.80;64.87;94016.44;4992155;28;20560;-56
2023/01/27 10:58:39;;;;;;;10.27;3.63;;;4.10;99.90;;;3.81;64.67;94018.91;4981803;28;20540;-59
2023/01/27 11:01:07;;;;;;;3.80;3.50;;;4.10;99.90;;;3.82;64.75;94025.75;4981958;28;21054;-56
2023/01/27 11:03:36;;;;;;;4.63;4.23;;;4.10;99.90;;;3.83;64.74;94027.41;4986277;28;20625;-58
2023/01/27 11:06:08;;;;;;;3.90;3.50;;;4.10;99.90;;;3.84;64.68;94029.06;4982397;28;20986;-57
2023/01/27 11:08:38;;;;;;;4.23;3.40;;;4.10;99.90;;;3.87;64.92;94025.38;4980959;28;20526;-57
2023/01/27 11:14:01;;;;;;;4.10;3.80;;;4.20;99.90;;;3.92;64.96;94023.28;4980017;28;20445;-55
2023/01/27 11:16:30;;;;;;;4.00;3.70;;;4.20;99.90;;;3.96;64.63;94032.47;4979124;28;20502;-57